Time;durP1;ratioP1;P1;durP2;ratioP2;P2;SDS_P1;SDS_P2;PMS_P1;PMS_P2;Temp;Humidity;BMP_temperature;BMP_pressure;BME280_temperature;BME280_humidity;BME280_pressure;Samples;Min_cycle;Max_cycle;Signal;HPM_P1;HPM_P2
2021/05/05 00:01:56;;;;;;;5.47;2.17;;;;;;;14.22;52.10;99992.88;5065000;28;20052;-75
2021/05/05 00:05:00;;;;;;;3.85;2.08;;;;;;;14.26;52.37;100008.56;5062219;28;20051;-75
2021/05/05 00:08:05;;;;;;;8.02;2.47;;;;;;;14.20;53.35;100008.34;5062128;28;20067;-75
2021/05/05 00:11:09;;;;;;;5.30;2.28;;;;;;;14.20;53.35;99994.88;5062440;28;20063;-75
2021/05/05 00:14:16;;;;;;;5.70;2.10;;;;;;;14.22;52.76;99984.78;5062613;28;20123;-74
2021/05/05 00:17:20;;;;;;;5.90;2.08;;;;;;;14.21;53.02;99985.78;5073315;28;20511;-75
2021/05/05 00:20:24;;;;;;;6.50;2.42;;;;;;;14.22;53.86;99979.38;5061893;28;20047;-75
2021/05/05 00:23:29;;;;;;;4.75;2.13;;;;;;;14.11;54.35;99976.97;5062180;28;20376;-74
2021/05/05 00:26:43;;;;;;;4.43;2.22;;;;;;;14.13;54.29;99981.19;5068231;28;20047;-75
2021/05/05 00:29:47;;;;;;;4.30;1.90;;;;;;;14.05;54.95;99986.56;5070473;28;20050;-74
2021/05/05 00:32:52;;;;;;;3.38;1.80;;;;;;;13.97;55.64;99983.03;5081909;28;20051;-74
2021/05/05 00:35:57;;;;;;;4.65;2.05;;;;;;;13.84;56.85;99988.03;5081884;28;20044;-76
2021/05/05 00:39:04;;;;;;;4.13;2.05;;;;;;;13.74;57.60;99979.25;5066601;28;20075;-74
2021/05/05 00:42:08;;;;;;;4.55;1.80;;;;;;;13.71;57.01;99977.72;5081468;28;20047;-75
2021/05/05 00:45:14;;;;;;;5.43;2.15;;;;;;;13.55;56.79;99981.19;5069539;28;20414;-74
2021/05/05 00:48:18;;;;;;;5.53;2.22;;;;;;;13.55;56.56;99973.09;5081190;28;20410;-75
2021/05/05 00:51:23;;;;;;;5.38;2.30;;;;;;;13.60;55.76;99967.25;5070610;28;20047;-75
2021/05/05 00:54:27;;;;;;;5.95;2.53;;;;;;;13.68;55.27;99965.41;5049578;28;20051;-74
2021/05/05 00:57:33;;;;;;;5.10;2.42;;;;;;;13.67;55.21;99969.13;5049039;28;20068;-75
2021/05/05 01:00:37;;;;;;;4.55;2.22;;;;;;;13.56;53.72;99966.72;5061095;28;20055;-75
2021/05/05 01:03:42;;;;;;;6.93;2.30;;;;;;;13.58;53.52;99959.31;5060767;28;20419;-75
2021/05/05 01:06:47;;;;;;;4.95;2.20;;;;;;;13.65;53.58;99948.72;5074302;28;20071;-74
2021/05/05 01:09:51;;;;;;;4.68;2.30;;;;;;;13.78;53.57;99951.78;5060848;28;20051;-75
2021/05/05 01:12:56;;;;;;;4.90;1.92;;;;;;;13.74;54.54;99939.63;5060625;28;20055;-75
2021/05/05 01:16:00;;;;;;;4.22;2.13;;;;;;;13.70;54.92;99940.97;5072451;28;20367;-74
2021/05/05 01:19:06;;;;;;;6.25;2.20;;;;;;;13.71;54.65;99942.66;5060433;28;20052;-74
2021/05/05 01:22:10;;;;;;;4.97;2.25;;;;;;;13.74;55.28;99930.69;5056820;28;20055;-75
2021/05/05 01:25:17;;;;;;;5.32;2.75;;;;;;;13.79;54.79;99929.19;5072042;28;20411;-75
2021/05/05 01:28:23;;;;;;;5.85;2.47;;;;;;;13.84;55.14;99929.53;5059105;28;20071;-74
2021/05/05 01:31:28;;;;;;;5.32;2.30;;;;;;;13.86;55.04;99916.72;5049794;28;20052;-75
2021/05/05 01:34:33;;;;;;;5.28;2.63;;;;;;;13.90;55.08;99917.25;5066874;28;20051;-75
2021/05/05 01:37:42;;;;;;;7.82;2.38;;;;;;;13.89;54.82;99912.84;5081216;28;20055;-74
2021/05/05 01:40:51;;;;;;;4.40;2.20;;;;;;;13.87;55.74;99907.63;5080789;28;20051;-74
2021/05/05 01:43:55;;;;;;;6.05;2.50;;;;;;;13.85;55.81;99911.50;5074005;28;20052;-75
2021/05/05 01:47:01;;;;;;;5.35;2.45;;;;;;;13.77;56.44;99919.56;5060889;28;20388;-75
2021/05/05 01:50:06;;;;;;;5.32;2.25;;;;;;;13.77;56.82;99903.41;5069166;28;20044;-75
2021/05/05 01:53:14;;;;;;;6.30;2.67;;;;;;;13.83;56.47;99894.63;5081133;28;20111;-75
2021/05/05 01:56:20;;;;;;;8.25;3.38;;;;;;;13.83;56.59;99890.06;5071040;28;20071;-74
2021/05/05 01:59:26;;;;;;;7.15;2.50;;;;;;;13.80;57.12;99887.69;5060884;28;20115;-75
2021/05/05 02:02:31;;;;;;;5.68;2.40;;;;;;;13.81;57.74;99877.75;5049749;28;20048;-75
2021/05/05 02:05:37;;;;;;;6.68;2.20;;;;;;;13.70;58.35;99877.06;5061278;28;20503;-75
2021/05/05 02:09:02;;;;;;;4.10;2.40;;;;;;;13.65;58.54;99863.25;5065388;28;20055;-75
2021/05/05 02:12:08;;;;;;;5.55;2.10;;;;;;;13.62;59.04;99877.06;5053225;28;20490;-76
2021/05/05 02:15:19;;;;;;;6.20;2.88;;;;;;;13.52;59.31;99889.88;5053232;28;20051;-75
2021/05/05 02:18:25;;;;;;;4.38;2.22;;;;;;;13.44;59.45;99886.28;5053009;28;20119;-75
2021/05/05 02:21:31;;;;;;;6.05;2.70;;;;;;;13.40;59.37;99876.84;5057335;28;20043;-74
2021/05/05 02:24:36;;;;;;;7.63;2.88;;;;;;;13.22;59.04;99876.09;5084425;28;20047;-75
2021/05/05 02:27:42;;;;;;;6.55;3.17;;;;;;;13.23;58.94;99875.13;5076164;28;20070;-75
2021/05/05 02:30:50;;;;;;;7.82;3.28;;;;;;;13.19;58.59;99866.50;5068919;28;20047;-75
2021/05/05 02:33:56;;;;;;;7.13;3.65;;;;;;;13.22;58.31;99863.47;5083912;28;20043;-74
2021/05/05 02:37:00;;;;;;;7.60;2.85;;;;;;;13.15;58.79;99862.44;5084235;28;20047;-75
2021/05/05 02:40:08;;;;;;;6.90;3.40;;;;;;;13.18;58.80;99862.13;5063646;28;20071;-75
2021/05/05 02:43:12;;;;;;;9.57;3.30;;;;;;;13.18;59.40;99870.22;5052814;28;20507;-74
2021/05/05 02:46:18;;;;;;;4.85;2.75;;;;;;;13.22;59.61;99865.31;5052778;28;20494;-75
2021/05/05 02:49:23;;;;;;;7.55;3.10;;;;;;;13.20;60.25;99867.34;5052553;28;20051;-74
2021/05/05 02:52:28;;;;;;;6.15;3.22;;;;;;;13.14;60.08;99857.22;5064308;28;20051;-75
2021/05/05 02:55:45;;;;;;;7.22;3.47;;;;;;;13.16;60.37;99863.31;5075507;28;20051;-74
2021/05/05 02:58:49;;;;;;;5.68;3.75;;;;;;;13.14;60.77;99873.38;5052291;28;20051;-75
2021/05/05 03:01:55;;;;;;;7.57;3.33;;;;;;;13.03;60.87;99863.72;5051868;28;20051;-74
2021/05/05 03:09:02;;;;;;;5.25;3.22;;;;;;;13.04;60.58;99857.31;5094936;28;20114;-74
2021/05/05 03:12:07;;;;;;;8.43;3.50;;;;;;;13.04;61.13;99858.16;5083412;28;20059;-74
2021/05/05 03:15:11;;;;;;;9.88;3.08;;;;;;;13.04;61.91;99862.69;5083436;28;20047;-75
2021/05/05 03:18:15;;;;;;;5.22;3.30;;;;;;;13.01;62.29;99849.56;5080243;28;20502;-75
2021/05/05 03:21:20;;;;;;;4.82;3.20;;;;;;;13.05;62.38;99841.00;5061893;28;20075;-74
2021/05/05 03:24:25;;;;;;;6.47;3.30;;;;;;;12.84;63.31;99842.41;5063132;28;20056;-75
2021/05/05 03:27:29;;;;;;;8.75;3.22;;;;;;;12.76;63.28;99839.69;5063226;28;20048;-74
2021/05/05 03:30:34;;;;;;;5.85;3.60;;;;;;;12.69;63.84;99841.34;5067345;28;20048;-75
2021/05/05 03:33:39;;;;;;;5.47;3.63;;;;;;;12.66;63.28;99836.28;5063214;28;20491;-74
2021/05/05 03:36:44;;;;;;;7.82;3.58;;;;;;;12.53;63.50;99820.56;5062743;28;20044;-74
2021/05/05 03:39:48;;;;;;;7.63;3.83;;;;;;;12.34;64.24;99818.91;5068893;28;20043;-74
2021/05/05 03:42:52;;;;;;;7.93;3.60;;;;;;;12.41;64.17;99819.13;5068064;28;20044;-74
2021/05/05 03:45:57;;;;;;;9.40;4.22;;;;;;;12.37;64.00;99825.81;5082665;28;20459;-74
2021/05/05 03:49:02;;;;;;;6.15;3.83;;;;;;;12.41;63.53;99829.91;5082604;28;20047;-75
2021/05/05 03:52:06;;;;;;;8.90;3.72;;;;;;;12.49;63.36;99815.66;5071290;28;20051;-74
2021/05/05 03:55:11;;;;;;;9.55;3.50;;;;;;;12.50;63.64;99814.63;5081102;28;20383;-74
2021/05/05 03:58:15;;;;;;;6.78;4.07;;;;;;;12.50;63.85;99820.00;5062491;28;20043;-74
2021/05/05 04:01:19;;;;;;;5.95;3.92;;;;;;;12.42;63.73;99818.13;5065653;28;20047;-74
2021/05/05 04:04:23;;;;;;;6.22;3.65;;;;;;;12.44;64.00;99815.28;5073510;28;20410;-74
2021/05/05 04:07:28;;;;;;;6.75;3.90;;;;;;;12.43;64.52;99814.44;5050822;28;20052;-74
2021/05/05 04:10:33;;;;;;;10.40;4.22;;;;;;;12.45;64.45;99817.81;5062234;28;20054;-75
2021/05/05 04:13:38;;;;;;;6.85;3.88;;;;;;;12.51;64.67;99821.72;5062193;28;20063;-74
2021/05/05 04:16:42;;;;;;;5.22;3.78;;;;;;;12.49;64.19;99804.88;5062187;28;20055;-74
2021/05/05 04:19:46;;;;;;;7.50;3.70;;;;;;;12.57;63.90;99805.75;5062145;28;20059;-73
2021/05/05 04:22:51;;;;;;;9.73;4.53;;;;;;;12.44;64.78;99802.69;5068711;28;20047;-74
2021/05/05 04:25:55;;;;;;;10.52;4.10;;;;;;;12.44;64.53;99807.22;5067201;28;20043;-74
2021/05/05 04:28:59;;;;;;;7.65;4.05;;;;;;;12.61;63.97;99817.91;5068970;28;20415;-74
2021/05/05 04:32:04;;;;;;;13.70;4.50;;;;;;;12.79;63.90;99820.50;5081563;28;20051;-75
2021/05/05 04:35:09;;;;;;;7.53;3.88;;;;;;;13.03;63.25;99809.84;5072209;28;20051;-73
2021/05/05 04:38:14;;;;;;;6.78;4.30;;;;;;;13.41;61.54;99806.56;5071541;28;20047;-74
2021/05/05 04:41:18;;;;;;;10.30;4.00;;;;;;;13.70;59.85;99812.34;5061593;28;20130;-76
2021/05/05 04:44:26;;;;;;;10.30;4.38;;;;;;;14.05;57.80;99816.56;5069165;28;20537;-75
2021/05/05 04:47:32;;;;;;;6.47;3.70;;;;;;;14.35;56.67;99820.44;5081532;28;20047;-75
2021/05/05 04:50:37;;;;;;;8.40;3.85;;;;;;;14.79;55.23;99826.22;5061722;28;20044;-74
2021/05/05 04:53:41;;;;;;;10.13;4.63;;;;;;;15.38;54.30;99828.28;5060890;28;20372;-74
2021/05/05 04:56:46;;;;;;;7.75;3.42;;;;;;;16.34;52.40;99834.03;5078947;28;20059;-74
2021/05/05 04:59:50;;;;;;;10.57;5.28;;;;;;;17.27;49.49;99824.31;5069719;28;20454;-74
2021/05/05 05:02:54;;;;;;;20.83;13.75;;;;;;;17.85;46.59;99827.91;5053811;28;20043;-75
2021/05/05 05:05:59;;;;;;;28.77;22.13;;;;;;;18.38;44.87;99830.03;5060979;28;20048;-74
2021/05/05 05:09:04;;;;;;;12.10;6.70;;;;;;;19.13;43.49;99827.41;5066075;28;20420;-75
2021/05/05 05:12:09;;;;;;;6.85;3.40;;;;;;;19.32;41.70;99828.50;5069472;28;20055;-74
2021/05/05 05:15:14;;;;;;;9.00;2.83;;;;;;;19.80;40.84;99816.50;5080714;28;20054;-74
2021/05/05 05:18:18;;;;;;;6.88;2.92;;;;;;;20.26;39.45;99813.88;5081105;28;20047;-75
2021/05/05 05:21:22;;;;;;;6.43;3.10;;;;;;;20.31;39.34;99813.25;5080738;28;20553;-75
2021/05/05 05:24:28;;;;;;;6.25;2.95;;;;;;;20.97;38.63;99824.88;5074044;28;20051;-75
2021/05/05 05:27:32;;;;;;;9.98;3.53;;;;;;;21.62;37.85;99829.25;5060717;28;20050;-76
2021/05/05 05:30:36;;;;;;;6.63;2.85;;;;;;;22.13;37.22;99831.88;5065401;28;20051;-76
2021/05/05 05:33:40;;;;;;;7.07;3.42;;;;;;;22.44;36.10;99837.34;5069087;28;20407;-76
2021/05/05 05:36:45;;;;;;;8.65;4.30;;;;;;;22.40;36.31;99827.88;5069995;28;20054;-75
2021/05/05 05:39:49;;;;;;;6.15;3.35;;;;;;;23.13;36.09;99823.38;5080907;28;20047;-76
2021/05/05 05:42:54;;;;;;;8.13;3.40;;;;;;;23.04;35.63;99830.22;5080296;28;20039;-75
2021/05/05 05:45:59;;;;;;;6.80;3.40;;;;;;;22.39;37.31;99831.69;5061191;28;20058;-75
2021/05/05 05:49:04;;;;;;;7.07;3.35;;;;;;;21.98;38.11;99837.66;5073429;28;20388;-75
2021/05/05 05:52:08;;;;;;;7.57;3.33;;;;;;;23.00;37.12;99835.31;5064902;28;20067;-77
2021/05/05 05:55:16;;;;;;;6.38;3.20;;;;;;;23.85;34.85;99833.38;5053251;28;20415;-77
2021/05/05 05:58:20;;;;;;;5.90;3.15;;;;;;;24.81;33.65;99834.00;5064952;28;20067;-76
2021/05/05 06:01:25;;;;;;;4.95;3.17;;;;;;;26.00;32.08;99824.09;5064871;28;20388;-77
2021/05/05 06:04:29;;;;;;;7.22;3.38;;;;;;;28.08;29.03;99824.09;5066296;28;21055;-77
2021/05/05 06:07:33;;;;;;;8.05;3.33;;;;;;;29.08;27.84;99809.41;5073747;28;20052;-77
2021/05/05 06:10:37;;;;;;;7.35;3.28;;;;;;;28.73;27.97;99799.81;5078189;28;20048;-78
2021/05/05 06:13:42;;;;;;;9.35;4.22;;;;;;;29.72;26.48;99808.03;5064345;28;20063;-77
2021/05/05 06:16:46;;;;;;;6.97;3.03;;;;;;;30.55;25.30;99817.03;5062617;28;20119;-78
2021/05/05 06:19:51;;;;;;;9.63;3.55;;;;;;;31.17;24.94;99825.81;5062274;28;20063;-79
2021/05/05 06:22:55;;;;;;;7.72;3.08;;;;;;;31.18;24.86;99826.66;5077512;28;20048;-77
2021/05/05 06:25:59;;;;;;;8.02;3.67;;;;;;;31.77;23.87;99818.38;5081477;28;20498;-77
2021/05/05 06:29:04;;;;;;;7.43;3.38;;;;;;;31.58;24.71;99820.16;5080055;28;20055;-78
2021/05/05 06:32:08;;;;;;;8.02;2.92;;;;;;;34.11;21.96;99819.38;5073179;28;20055;-77
2021/05/05 06:35:13;;;;;;;7.03;2.90;;;;;;;33.20;21.98;99820.56;5063740;28;20055;-77
2021/05/05 06:38:17;;;;;;;10.10;3.10;;;;;;;32.57;22.57;99819.78;5052786;28;20462;-78
2021/05/05 06:41:22;;;;;;;8.77;2.80;;;;;;;34.02;21.47;99808.88;5063361;28;20059;-75
2021/05/05 06:44:26;;;;;;;6.88;2.70;;;;;;;34.24;22.00;99807.47;5052096;28;20055;-78
2021/05/05 06:47:31;;;;;;;5.20;2.50;;;;;;;34.76;20.80;99803.53;5078864;28;20056;-78
2021/05/05 06:50:35;;;;;;;6.13;2.40;;;;;;;36.15;20.34;99800.88;5075089;28;20051;-75
2021/05/05 06:53:40;;;;;;;10.32;2.58;;;;;;;37.28;19.20;99794.88;5071156;28;20047;-76
2021/05/05 06:56:44;;;;;;;8.43;3.13;;;;;;;36.00;19.91;99792.88;5062410;28;20048;-76
2021/05/05 06:59:49;;;;;;;8.32;3.45;;;;;;;34.96;21.18;99781.63;5059734;28;20047;-73
2021/05/05 07:02:54;;;;;;;6.57;2.47;;;;;;;38.13;18.72;99778.22;5083008;28;20055;-73
2021/05/05 07:05:59;;;;;;;7.47;2.50;;;;;;;39.13;17.32;99770.28;5071956;28;20043;-75
2021/05/05 07:09:04;;;;;;;8.65;3.30;;;;;;;38.09;18.89;99768.00;5065936;28;20411;-77
2021/05/05 07:12:08;;;;;;;10.02;3.58;;;;;;;38.32;19.03;99772.31;5076489;28;20047;-77
2021/05/05 07:15:13;;;;;;;6.25;3.65;;;;;;;38.50;18.37;99779.53;5080370;28;20067;-75
2021/05/05 07:18:18;;;;;;;11.45;4.18;;;;;;;38.14;18.89;99770.66;5082446;28;20051;-78
2021/05/05 07:21:23;;;;;;;8.25;3.22;;;;;;;37.89;19.29;99763.06;5076262;28;20051;-79
2021/05/05 07:24:27;;;;;;;9.80;2.70;;;;;;;38.53;18.24;99759.22;5070402;28;20043;-76
2021/05/05 07:27:32;;;;;;;6.40;2.53;;;;;;;38.24;18.29;99759.91;5070507;28;20055;-78
2021/05/05 07:30:36;;;;;;;6.88;2.58;;;;;;;39.46;18.03;99748.78;5071154;28;20383;-80
2021/05/05 07:33:41;;;;;;;5.35;2.60;;;;;;;40.17;17.45;99726.28;5071366;28;20043;-79
2021/05/05 07:36:47;;;;;;;9.27;2.78;;;;;;;39.85;17.30;99725.03;5071025;28;20047;-78
2021/05/05 07:40:42;;;;;;;4.78;2.35;;;;;;;39.90;17.23;99719.19;5070656;28;20127;-78
2021/05/05 07:50:00;;;;;;;4.68;2.22;;;;;;;39.20;18.18;99680.72;5082365;28;20047;-78
2021/05/05 07:53:06;;;;;;;7.05;2.25;;;;;;;38.16;18.38;99685.03;5070884;28;20047;-79
2021/05/05 07:56:11;;;;;;;5.35;2.50;;;;;;;38.07;18.55;99686.22;5088010;28;20040;-80
2021/05/05 07:59:16;;;;;;;7.50;2.53;;;;;;;38.56;18.42;99682.81;5081823;28;20055;-80
2021/05/05 08:02:20;;;;;;;8.50;3.28;;;;;;;38.91;19.00;99681.50;5070882;28;20059;-79
2021/05/05 08:05:25;;;;;;;8.52;3.58;;;;;;;37.59;19.15;99681.59;5070361;28;20047;-79
2021/05/05 08:08:30;;;;;;;7.03;3.05;;;;;;;37.27;19.83;99692.41;5082084;28;20406;-79
2021/05/05 08:11:34;;;;;;;4.50;2.40;;;;;;;37.48;19.25;99688.66;5070735;28;20051;-79
2021/05/05 08:14:40;;;;;;;6.82;2.40;;;;;;;39.31;17.48;99681.16;5081033;28;20055;-79
2021/05/05 08:17:44;;;;;;;6.82;2.38;;;;;;;39.21;17.94;99671.13;5089958;28;20063;-79
2021/05/05 08:20:49;;;;;;;7.45;1.92;;;;;;;39.39;16.73;99677.44;5081941;28;20482;-79
2021/05/05 08:23:54;;;;;;;5.03;1.95;;;;;;;40.19;16.93;99679.75;5074201;28;20059;-80
2021/05/05 08:26:59;;;;;;;4.65;2.00;;;;;;;40.70;16.77;99683.16;5072967;28;20044;-79
2021/05/05 08:30:04;;;;;;;6.50;2.25;;;;;;;36.81;19.80;99688.16;5078847;28;20059;-79
2021/05/05 08:33:08;;;;;;;8.35;2.85;;;;;;;31.64;25.64;99699.66;5081196;28;20051;-78
2021/05/05 08:36:13;;;;;;;9.32;3.03;;;;;;;28.51;29.43;99687.78;5090277;28;20051;-78
2021/05/05 08:39:17;;;;;;;7.13;3.47;;;;;;;26.95;31.85;99700.91;5092584;28;20055;-74
2021/05/05 08:42:21;;;;;;;7.63;3.55;;;;;;;25.43;34.85;99708.63;5084685;28;20059;-75
2021/05/05 08:45:29;;;;;;;11.05;3.78;;;;;;;24.61;36.66;99704.47;5093814;28;20110;-73
2021/05/05 08:48:35;;;;;;;6.35;2.90;;;;;;;24.71;36.08;99685.47;5092575;28;20066;-73
2021/05/05 08:51:42;;;;;;;6.25;2.70;;;;;;;24.80;35.96;99696.94;5092556;28;20047;-73
2021/05/05 08:54:47;;;;;;;8.63;2.65;;;;;;;25.13;35.27;99700.63;5093933;28;20051;-74
2021/05/05 08:57:52;;;;;;;6.85;2.47;;;;;;;25.20;34.49;99697.75;5093394;28;20498;-74
2021/05/05 09:00:56;;;;;;;7.70;2.53;;;;;;;25.16;35.21;99705.66;5093352;28;20062;-74
2021/05/05 09:04:00;;;;;;;4.55;1.95;;;;;;;25.32;34.74;99694.97;5093699;28;20118;-73
2021/05/05 09:07:05;;;;;;;5.70;2.70;;;;;;;25.09;35.64;99683.00;5092885;28;20502;-73
2021/05/05 09:10:23;;;;;;;9.57;1.75;;;;;;;24.54;35.26;99692.81;5092977;28;20059;-72
2021/05/05 09:13:47;;;;;;;4.70;1.42;;;;;;;24.21;35.50;99693.41;5111831;28;20042;-76
2021/05/05 09:16:51;;;;;;;10.25;1.88;;;;;;;23.88;36.49;99684.91;5090973;28;20067;-77
2021/05/05 09:20:05;;;;;;;7.68;2.35;;;;;;;23.73;37.30;99688.09;5092996;28;20051;-77
2021/05/05 09:23:10;;;;;;;6.03;1.48;;;;;;;23.67;36.85;99689.06;5092951;28;20114;-76
2021/05/05 09:26:33;;;;;;;5.88;1.40;;;;;;;23.64;36.81;99699.63;5093607;28;20503;-77
2021/05/05 09:29:41;;;;;;;6.07;1.90;;;;;;;23.50;37.61;99679.84;5073532;28;20047;-75
2021/05/05 09:32:53;;;;;;;7.05;1.75;;;;;;;23.42;37.54;99676.59;5072166;28;20051;-76
2021/05/05 09:36:00;;;;;;;7.87;1.67;;;;;;;23.59;38.06;99664.72;5090367;28;20051;-76
2021/05/05 09:39:07;;;;;;;8.80;2.15;;;;;;;23.68;37.92;99671.53;5092035;28;20055;-75
2021/05/05 09:42:15;;;;;;;6.25;1.65;;;;;;;23.69;37.53;99675.94;5091009;28;20064;-76
2021/05/05 09:45:21;;;;;;;6.65;1.40;;;;;;;23.88;36.84;99679.41;5089492;28;20486;-76
2021/05/05 09:48:25;;;;;;;6.72;1.50;;;;;;;24.02;36.88;99691.00;5092395;28;20075;-76
2021/05/05 09:51:48;;;;;;;7.88;1.80;;;;;;;24.04;36.92;99694.34;5083621;28;20060;-75
2021/05/05 09:55:02;;;;;;;5.18;1.50;;;;;;;23.59;37.63;99681.16;5073163;28;20067;-76
2021/05/05 09:58:21;;;;;;;5.15;1.42;;;;;;;23.62;37.96;99677.97;5085793;28;20044;-76
2021/05/05 10:01:25;;;;;;;7.53;1.75;;;;;;;23.82;37.93;99669.41;5092040;28;20051;-76
2021/05/05 10:04:31;;;;;;;7.13;1.55;;;;;;;23.70;38.18;99661.16;5093079;28;20399;-75
2021/05/05 10:07:53;;;;;;;4.53;1.40;;;;;;;22.75;38.90;99653.91;5093279;28;20059;-75
2021/05/05 10:10:57;;;;;;;6.78;1.45;;;;;;;22.35;40.01;99639.84;5092264;28;20063;-75
2021/05/05 10:14:01;;;;;;;4.43;1.35;;;;;;;22.51;40.43;99635.69;5092196;28;20399;-76
2021/05/05 10:17:06;;;;;;;3.83;1.17;;;;;;;22.67;40.32;99632.34;5091844;28;20051;-75
2021/05/05 10:20:14;;;;;;;4.50;1.40;;;;;;;22.82;40.38;99626.44;5092300;28;20047;-74
2021/05/05 10:23:19;;;;;;;3.67;1.50;;;;;;;22.50;40.05;99631.25;5092018;28;20054;-77
2021/05/05 10:26:26;;;;;;;5.93;1.85;;;;;;;22.65;41.01;99618.91;5091695;28;20516;-76
2021/05/05 10:29:32;;;;;;;3.47;1.40;;;;;;;22.98;40.75;99617.59;5090301;28;20047;-75
2021/05/05 10:32:43;;;;;;;8.82;1.73;;;;;;;23.02;39.84;99619.63;5096256;28;20043;-75
2021/05/05 10:35:47;;;;;;;4.63;1.20;;;;;;;22.78;39.57;99617.03;5095044;28;20043;-75
2021/05/05 10:38:51;;;;;;;3.28;1.50;;;;;;;22.81;40.62;99622.91;5094098;28;20067;-74
2021/05/05 10:41:59;;;;;;;6.60;1.10;;;;;;;23.16;40.34;99610.16;5075604;28;20055;-73
2021/05/05 10:45:04;;;;;;;4.85;1.02;;;;;;;22.95;39.01;99618.06;5089175;28;20066;-75
2021/05/05 10:48:14;;;;;;;4.65;1.10;;;;;;;22.67;39.90;99616.75;5090665;28;20059;-75
2021/05/05 10:51:19;;;;;;;2.88;1.10;;;;;;;22.84;40.96;99616.94;5091618;28;20059;-75
2021/05/05 10:54:53;;;;;;;2.55;0.88;;;;;;;23.15;40.41;99613.13;5091992;28;20047;-74
2021/05/05 10:58:05;;;;;;;8.85;0.90;;;;;;;23.57;39.44;99603.84;5093230;28;20572;-75
2021/05/05 11:01:09;;;;;;;6.13;0.80;;;;;;;22.98;40.91;99598.44;5093064;28;20054;-73
2021/05/05 11:04:14;;;;;;;5.97;1.20;;;;;;;22.72;41.60;99616.06;5092060;28;20039;-75
2021/05/05 11:07:51;;;;;;;5.05;1.10;;;;;;;22.49;41.75;99605.78;5092321;28;20047;-74
2021/05/05 11:10:58;;;;;;;3.17;0.80;;;;;;;22.55;41.89;99610.38;5093783;28;20071;-74
2021/05/05 11:14:02;;;;;;;3.30;1.10;;;;;;;22.89;41.06;99602.56;5093472;28;20127;-74
2021/05/05 11:17:07;;;;;;;7.43;1.20;;;;;;;22.61;41.46;99594.94;5093683;28;20391;-74
2021/05/05 11:20:40;;;;;;;5.13;0.93;;;;;;;22.01;42.28;99607.63;5093844;28;20058;-74
2021/05/05 11:23:45;;;;;;;6.78;1.05;;;;;;;22.25;43.28;99581.28;5096016;28;20493;-73
2021/05/05 11:26:49;;;;;;;2.95;0.80;;;;;;;22.08;42.98;99594.72;5095866;28;20046;-76
2021/05/05 11:29:54;;;;;;;3.63;1.00;;;;;;;22.11;43.49;99588.81;5094963;28;20059;-75
2021/05/05 11:32:59;;;;;;;3.95;0.90;;;;;;;22.26;42.48;99578.34;5095944;28;20375;-75
2021/05/05 11:36:16;;;;;;;2.58;0.82;;;;;;;22.35;43.16;99581.56;5095653;28;20062;-76
2021/05/05 11:39:28;;;;;;;6.20;1.25;;;;;;;22.49;42.81;99574.91;5095602;28;20059;-76
2021/05/05 11:42:36;;;;;;;4.40;1.20;;;;;;;22.50;43.27;99580.13;5094436;28;20062;-76
2021/05/05 11:45:47;;;;;;;4.45;1.02;;;;;;;22.71;42.49;99567.91;5095664;28;20047;-76
2021/05/05 11:48:52;;;;;;;3.03;1.00;;;;;;;22.47;42.82;99571.53;5093800;28;20529;-78
2021/05/05 11:51:56;;;;;;;5.00;1.10;;;;;;;22.31;43.17;99578.50;5093083;28;20402;-77
2021/05/05 11:55:06;;;;;;;3.42;0.90;;;;;;;22.21;42.24;99569.16;5078562;28;20040;-74
2021/05/05 11:58:12;;;;;;;4.10;0.98;;;;;;;21.91;42.38;99572.63;5084125;28;20962;-76
2021/05/05 12:01:39;;;;;;;3.63;1.13;;;;;;;21.65;43.59;99580.25;5076707;28;20063;-78
2021/05/05 12:04:43;;;;;;;4.97;1.40;;;;;;;21.70;44.01;99572.22;5094209;28;20335;-78
2021/05/05 12:08:08;;;;;;;2.40;0.90;;;;;;;21.91;43.53;99580.00;5083335;28;20055;-77
2021/05/05 12:11:12;;;;;;;4.00;0.82;;;;;;;21.99;43.47;99583.28;5083245;28;20071;-76
2021/05/05 12:14:29;;;;;;;4.25;1.00;;;;;;;22.03;43.64;99569.97;5081202;28;20064;-77
2021/05/05 12:17:41;;;;;;;3.38;1.00;;;;;;;21.78;43.97;99578.19;5075745;28;20050;-77
2021/05/05 12:20:47;;;;;;;5.22;1.50;;;;;;;21.71;43.99;99588.34;5093275;28;20059;-77
2021/05/05 12:24:00;;;;;;;5.25;1.08;;;;;;;21.90;44.06;99586.50;5081282;28;20047;-78
2021/05/05 12:27:08;;;;;;;5.07;1.05;;;;;;;21.92;44.16;99584.41;5093112;28;20154;-78
2021/05/05 12:30:13;;;;;;;4.03;1.10;;;;;;;21.80;44.80;99583.47;5094117;28;20051;-78
2021/05/05 12:33:31;;;;;;;6.25;1.02;;;;;;;22.11;43.91;99597.00;5090979;28;20051;-74
2021/05/05 12:36:42;;;;;;;12.57;1.95;;;;;;;22.35;42.91;99584.31;5079750;28;20052;-76
2021/05/05 12:39:48;;;;;;;4.25;1.30;;;;;;;22.42;43.16;99583.16;5072531;28;20055;-74
2021/05/05 12:42:54;;;;;;;8.25;1.30;;;;;;;22.59;42.87;99586.94;5078165;28;20043;-79
2021/05/05 12:46:00;;;;;;;10.23;1.40;;;;;;;22.96;41.49;99598.66;5094218;28;20043;-78
2021/05/05 12:49:16;;;;;;;7.25;1.50;;;;;;;22.93;41.45;99592.84;5074297;28;20056;-77
2021/05/05 12:52:27;;;;;;;7.65;1.95;;;;;;;22.82;41.76;99574.44;5090876;28;20047;-79
2021/05/05 12:55:35;;;;;;;14.20;1.80;;;;;;;22.49;41.71;99588.56;5086035;28;20051;-76
2021/05/05 12:58:43;;;;;;;10.25;1.83;;;;;;;22.29;42.12;99571.56;5091230;28;20395;-77
2021/05/05 13:01:49;;;;;;;9.70;1.98;;;;;;;22.24;41.58;99579.63;5084143;28;20067;-73
2021/05/05 13:05:06;;;;;;;9.60;1.75;;;;;;;22.03;41.88;99581.75;5073237;28;20067;-74
2021/05/05 13:08:10;;;;;;;8.10;1.40;;;;;;;22.09;42.31;99601.03;5072080;28;20052;-76
2021/05/05 13:11:26;;;;;;;5.75;1.80;;;;;;;22.05;42.13;99589.72;5073060;28;20400;-76
2021/05/05 13:15:04;;;;;;;9.90;1.75;;;;;;;22.23;42.02;99591.63;5089340;28;20387;-74
2021/05/05 13:18:33;;;;;;;7.65;1.60;;;;;;;;;;5091939;28;20521;-74
2021/05/05 13:31:50;;;;;;;7.18;1.65;;;;;;;21.79;42.82;99558.03;5092650;28;20047;-76
2021/05/05 13:35:21;;;;;;;10.57;1.73;;;;;;;21.77;43.72;99578.44;5092910;28;20398;-74
2021/05/05 13:38:28;;;;;;;10.02;1.50;;;;;;;22.00;43.47;99568.53;5091777;28;20043;-73
2021/05/05 13:41:32;;;;;;;7.05;1.48;;;;;;;22.10;42.86;99573.47;5091631;28;20055;-73
2021/05/05 13:44:49;;;;;;;5.05;1.15;;;;;;;22.04;43.30;99555.25;5092332;28;20051;-73
2021/05/05 13:48:06;;;;;;;11.32;1.52;;;;;;;22.08;43.76;99545.53;5092503;28;20043;-74
2021/05/05 13:51:17;;;;;;;4.47;1.30;;;;;;;22.26;43.23;99548.25;5092869;28;20486;-73
2021/05/05 13:54:21;;;;;;;10.20;1.75;;;;;;;22.11;42.81;99550.53;5092686;28;20051;-73
2021/05/05 13:57:26;;;;;;;10.52;1.45;;;;;;;22.19;43.06;99544.78;5092795;28;20047;-74
2021/05/05 14:00:30;;;;;;;3.85;1.10;;;;;;;22.00;43.00;99564.97;5092339;28;20066;-73
2021/05/05 14:03:35;;;;;;;12.18;2.00;;;;;;;22.03;42.84;99531.72;5092775;28;20051;-73
2021/05/05 14:06:45;;;;;;;7.57;1.50;;;;;;;22.10;43.26;99548.88;5096177;28;20502;-73
2021/05/05 14:09:49;;;;;;;10.60;1.50;;;;;;;22.09;43.39;99538.16;5088343;28;20043;-73
2021/05/05 14:12:55;;;;;;;9.93;1.40;;;;;;;22.15;43.17;99523.56;5075576;28;20497;-76
2021/05/05 14:16:04;;;;;;;7.90;1.42;;;;;;;22.11;42.89;99541.50;5077511;28;20047;-73
2021/05/05 14:19:09;;;;;;;6.72;1.52;;;;;;;21.91;43.65;99539.00;5074209;28;20426;-76
2021/05/05 14:22:14;;;;;;;5.72;1.40;;;;;;;22.03;43.44;99538.03;5080639;28;20063;-76
2021/05/05 14:25:19;;;;;;;7.43;1.88;;;;;;;22.11;44.07;99545.06;5074997;28;20055;-77
2021/05/05 14:28:24;;;;;;;9.18;1.85;;;;;;;22.14;43.60;99533.69;5086671;28;20064;-75
2021/05/05 14:31:29;;;;;;;7.55;1.90;;;;;;;22.15;43.34;99534.50;5083825;28;20048;-75
2021/05/05 14:34:33;;;;;;;7.45;3.40;;;;;;;22.09;43.44;99535.44;5086779;28;20379;-73
2021/05/05 14:37:38;;;;;;;7.20;1.83;;;;;;;22.05;43.29;99532.31;5091558;28;20039;-76
2021/05/05 14:40:44;;;;;;;10.15;1.85;;;;;;;21.77;44.52;99537.44;5095533;28;20059;-74
2021/05/05 14:50:18;;;;;;;7.55;2.10;;;;;;;21.57;43.27;99514.97;5074996;28;20049;-75
2021/05/05 14:53:23;;;;;;;10.43;2.10;;;;;;;21.66;43.84;99508.13;5088116;28;20043;-74
2021/05/05 14:56:29;;;;;;;8.52;2.35;;;;;;;21.67;43.63;99523.47;5094673;28;20055;-74
2021/05/05 14:59:34;;;;;;;9.23;1.83;;;;;;;21.59;44.57;99524.59;5095443;28;20390;-74
2021/05/05 15:02:39;;;;;;;9.25;2.13;;;;;;;21.58;44.29;99517.47;5090092;28;20051;-74
2021/05/05 15:05:44;;;;;;;13.43;2.38;;;;;;;21.42;43.78;99512.59;5083326;28;20047;-74
2021/05/05 15:09:21;;;;;;;13.68;1.80;;;;;;;21.60;43.97;99517.25;5095475;28;20055;-74